Time;durP1;ratioP1;P1;durP2;ratioP2;P2;SDS_P1;SDS_P2;PMS_P1;PMS_P2;Temp;Humidity;BMP_temperature;BMP_pressure;BME280_temperature;BME280_humidity;BME280_pressure;Samples;Min_cycle;Max_cycle;Signal;HPM_P1;HPM_P2
2023/08/22 00:00:50;;;;;;;11.87;5.07;;;;;;;-143.84;36.99;44911.97;5050378;28;20543;-64
2023/08/22 00:03:17;;;;;;;6.53;5.03;;;;;;;-143.84;37.14;44934.81;5050630;28;20456;-64
2023/08/22 00:05:44;;;;;;;5.37;4.87;;;;;;;-143.84;37.01;44925.31;5050630;28;20441;-65
2023/08/22 00:08:12;;;;;;;4.93;4.43;;;;;;;-143.84;36.82;44927.19;5050509;28;20452;-65
2023/08/22 00:10:41;;;;;;;5.37;4.97;;;;;;;-143.84;37.08;44925.31;5050469;28;20452;-65
2023/08/22 00:13:08;;;;;;;13.13;5.40;;;;;;;-143.84;37.50;44919.59;5050501;28;20473;-65
2023/08/22 00:15:35;;;;;;;10.40;5.33;;;;;;;-143.84;37.27;44885.31;5050485;28;20449;-65
2023/08/22 00:18:03;;;;;;;6.77;5.10;;;;;;;-143.84;37.37;44931.00;5050273;28;20471;-65
2023/08/22 00:20:30;;;;;;;6.03;4.80;;;;;;;-143.84;37.21;44942.44;5050228;28;20548;-65
2023/08/22 00:22:57;;;;;;;8.90;5.10;;;;;;;-143.84;37.43;44896.75;5049666;28;20442;-65
2023/08/22 00:25:24;;;;;;;5.97;5.37;;;;;;;-143.84;37.55;44911.97;5049323;28;20437;-64
2023/08/22 00:27:53;;;;;;;6.30;5.43;;;;;;;-143.84;37.70;44919.59;5049400;28;20469;-64
2023/08/22 00:30:20;;;;;;;8.03;5.57;;;;;;;-143.84;38.01;44934.81;5049728;28;20511;-64
2023/08/22 00:32:47;;;;;;;4.93;4.63;;;;;;;-143.84;37.94;44919.59;5050283;28;20484;-64
2023/08/22 00:35:14;;;;;;;9.90;5.70;;;;;;;-143.84;37.95;44913.88;5049827;28;20847;-64
2023/08/22 00:37:41;;;;;;;8.30;5.30;;;;;;;-143.84;37.92;44934.81;5050023;28;20442;-65
2023/08/22 00:40:09;;;;;;;9.50;6.00;;;;;;;-143.84;38.21;44929.09;5049681;28;20441;-65
2023/08/22 00:42:36;;;;;;;7.53;5.50;;;;;;;-143.84;38.14;44923.41;5049834;28;20799;-65
2023/08/22 00:45:06;;;;;;;10.53;5.50;;;;;;;-143.84;37.98;44925.31;5049548;28;20429;-65
2023/08/22 00:47:32;;;;;;;6.90;4.83;;;;;;;-143.84;38.47;44921.50;5050115;28;20790;-65
2023/08/22 00:50:00;;;;;;;9.80;5.93;;;;;;;-143.84;37.96;44940.53;5049251;28;20634;-64
2023/08/22 00:52:27;;;;;;;6.23;5.70;;;;;;;-143.84;37.98;44923.41;5049567;28;20441;-64
2023/08/22 00:54:54;;;;;;;8.13;5.07;;;;;;;-143.84;38.36;44911.97;5049661;28;20450;-65
2023/08/22 00:57:21;;;;;;;8.33;5.23;;;;;;;-143.84;38.44;44934.81;5049590;28;20547;-65
2023/08/22 00:59:49;;;;;;;9.70;4.60;;;;;;;-143.84;38.32;44925.31;5049413;28;20430;-65
2023/08/22 01:02:17;;;;;;;8.27;4.63;;;;;;;-143.84;39.04;44950.06;5049285;28;20469;-64
2023/08/22 01:04:44;;;;;;;5.77;5.27;;;;;;;-143.84;38.58;44929.09;5049696;28;20449;-63
2023/08/22 01:07:20;;;;;;;10.27;5.47;;;;;;;-143.84;38.76;44934.81;5049711;28;20456;-65
2023/08/22 01:09:54;;;;;;;6.03;5.47;;;;;;;-143.84;38.76;44923.41;5049929;28;20491;-63
2023/08/22 01:12:27;;;;;;;10.67;6.40;;;;;;;-143.84;38.96;44936.72;5049744;28;20442;-63
2023/08/22 01:15:00;;;;;;;6.20;4.80;;;;;;;-143.84;38.99;44917.69;5049889;28;20880;-63
2023/08/22 01:17:30;;;;;;;5.33;4.83;;;;;;;-143.84;38.92;44963.38;5049860;28;20511;-62
2023/08/22 01:19:57;;;;;;;8.77;5.80;;;;;;;-143.84;39.46;44927.19;5050000;28;20441;-64
2023/08/22 01:22:27;;;;;;;13.00;5.50;;;;;;;-143.84;39.38;44919.59;5049052;28;20506;-65
2023/08/22 01:24:54;;;;;;;22.50;5.83;;;;;;;-143.84;39.37;44948.16;5049107;28;20441;-65
2023/08/22 01:27:27;;;;;;;10.60;5.50;;;;;;;-143.84;39.70;44944.34;5049085;28;20442;-65
2023/08/22 01:29:59;;;;;;;18.27;5.20;;;;;;;-143.84;39.71;44951.97;5049082;28;20495;-64
2023/08/22 01:32:31;;;;;;;14.27;5.60;;;;;;;-143.84;40.00;44942.44;5049233;28;20459;-65
2023/08/22 01:35:02;;;;;;;7.90;5.57;;;;;;;-143.84;40.14;44927.19;5049207;28;20446;-64
2023/08/22 01:37:32;;;;;;;17.03;5.47;;;;;;;-143.84;40.54;44972.91;5049037;28;20449;-64
2023/08/22 01:40:00;;;;;;;18.33;5.93;;;;;;;-143.84;40.65;44951.97;5048789;28;20450;-64
2023/08/22 01:42:28;;;;;;;10.90;5.93;;;;;;;-143.84;40.93;44963.38;5049003;28;20842;-64
2023/08/22 01:44:55;;;;;;;7.73;5.10;;;;;;;-143.84;41.00;44951.97;5049180;28;20445;-63
2023/08/22 01:47:22;;;;;;;6.33;5.83;;;;;;;-143.84;41.08;44972.91;5049246;28;20434;-62
2023/08/22 01:49:49;;;;;;;7.00;5.83;;;;;;;-143.84;40.86;44948.16;5049324;28;20474;-63
2023/08/22 01:52:17;;;;;;;10.33;5.43;;;;;;;-143.84;40.85;44957.66;5049424;28;20441;-63
2023/08/22 01:54:45;;;;;;;8.70;5.60;;;;;;;-143.84;40.54;44927.19;5049213;28;20523;-62
2023/08/22 01:57:12;;;;;;;16.60;5.80;;;;;;;-143.84;40.77;44934.81;5049369;28;20528;-62
2023/08/22 01:59:39;;;;;;;10.37;5.00;;;;;;;-143.84;40.37;44951.97;5049336;28;20438;-64
2023/08/22 02:02:07;;;;;;;10.30;5.33;;;;;;;-143.84;40.31;44965.28;5048917;28;20501;-67
2023/08/22 02:04:34;;;;;;;5.73;5.00;;;;;;;-143.84;40.39;44950.06;5052921;28;20442;-67
2023/08/22 02:07:02;;;;;;;6.00;5.50;;;;;;;-143.84;40.24;44965.28;5052765;28;21341;-67
2023/08/22 02:09:29;;;;;;;8.73;5.03;;;;;;;-143.84;40.16;44953.88;5052910;28;20499;-66
2023/08/22 02:11:58;;;;;;;12.60;5.40;;;;;;;-143.84;40.69;44950.06;5052751;28;20492;-66
2023/08/22 02:14:25;;;;;;;7.33;5.20;;;;;;;-143.84;40.51;44946.25;5052374;28;20842;-67
2023/08/22 02:16:52;;;;;;;17.07;6.63;;;;;;;-143.84;40.57;44982.41;5052961;28;20425;-67
2023/08/22 02:19:19;;;;;;;6.80;5.13;;;;;;;-143.84;40.69;44942.44;5053028;28;20491;-66
2023/08/22 02:21:46;;;;;;;7.73;5.43;;;;;;;-143.84;40.36;44969.09;5052259;28;20441;-67
2023/08/22 02:24:13;;;;;;;17.40;5.77;;;;;;;-143.84;40.43;44957.66;5052670;28;20919;-67
2023/08/22 02:26:42;;;;;;;9.13;5.67;;;;;;;-143.84;40.57;44946.25;5052497;28;20445;-67
2023/08/22 02:29:11;;;;;;;6.40;5.80;;;;;;;-143.84;40.97;44942.44;5052485;28;20437;-67
2023/08/22 02:31:38;;;;;;;16.33;4.93;;;;;;;-143.84;41.00;44963.38;5052518;28;20442;-67
2023/08/22 02:34:06;;;;;;;8.27;5.80;;;;;;;-143.84;41.05;44961.47;5052334;28;20473;-67
2023/08/22 02:36:33;;;;;;;8.30;5.17;;;;;;;-143.84;40.88;44950.06;5052460;28;20440;-66
2023/08/22 02:39:00;;;;;;;7.67;5.13;;;;;;;-143.84;40.80;44934.81;5052294;28;20462;-67
2023/08/22 02:41:27;;;;;;;9.73;5.20;;;;;;;-143.84;41.06;44934.81;5052351;28;20444;-66
2023/08/22 02:43:54;;;;;;;7.03;5.40;;;;;;;-143.84;41.23;44948.16;5052339;28;20517;-67
2023/08/22 02:46:23;;;;;;;7.27;5.67;;;;;;;-143.84;41.94;44936.72;5051370;28;20507;-67
2023/08/22 02:48:50;;;;;;;9.33;5.70;;;;;;;-143.84;42.00;44957.66;5051434;28;20442;-67
2023/08/22 02:51:17;;;;;;;21.23;5.90;;;;;;;-143.84;42.39;44969.09;5051459;28;20434;-67
2023/08/22 02:53:44;;;;;;;11.40;7.30;;;;;;;-143.84;42.08;44934.81;5051906;28;21002;-67
2023/08/22 02:56:12;;;;;;;12.70;6.23;;;;;;;-143.84;42.13;44932.91;5051836;28;20430;-67
2023/08/22 02:58:39;;;;;;;12.03;6.73;;;;;;;-143.84;42.11;44965.28;5051865;28;20442;-67
2023/08/22 03:01:07;;;;;;;7.93;7.10;;;;;;;-143.84;42.50;44946.25;5051566;28;20485;-67
2023/08/22 03:03:36;;;;;;;8.13;6.50;;;;;;;-143.84;42.88;44946.25;5051541;28;20481;-67
2023/08/22 03:06:03;;;;;;;10.40;6.57;;;;;;;-143.84;42.78;44963.38;5051500;28;20525;-67
2023/08/22 03:08:30;;;;;;;9.30;7.13;;;;;;;-143.84;42.91;44959.56;5052192;28;20434;-66
2023/08/22 03:11:00;;;;;;;10.13;6.73;;;;;;;-143.84;42.77;44940.53;5052786;28;20448;-66
2023/08/22 03:13:29;;;;;;;11.10;6.93;;;;;;;-143.84;42.96;44961.47;5051750;28;20483;-66
2023/08/22 03:15:57;;;;;;;12.17;6.90;;;;;;;-143.84;42.85;44944.34;5052301;28;20820;-65
2023/08/22 03:18:25;;;;;;;8.97;6.77;;;;;;;-143.84;42.93;44934.81;5051968;28;20509;-65
2023/08/22 03:20:56;;;;;;;18.57;7.60;;;;;;;-143.84;42.73;44972.91;5051773;28;20442;-65
2023/08/22 03:23:23;;;;;;;8.50;7.00;;;;;;;-143.84;42.94;44957.66;5051326;28;20449;-67
2023/08/22 03:25:57;;;;;;;9.13;7.13;;;;;;;-143.84;42.65;44929.09;5051074;28;21137;-65
2023/08/22 03:28:24;;;;;;;14.23;6.97;;;;;;;-143.84;42.76;44976.72;5051188;28;20445;-66
2023/08/22 03:30:56;;;;;;;9.13;7.00;;;;;;;-143.84;42.18;44946.25;5051545;28;20525;-66
2023/08/22 03:33:24;;;;;;;8.87;6.47;;;;;;;-143.84;42.76;44932.91;5051177;28;20947;-66
2023/08/22 03:35:52;;;;;;;10.50;7.00;;;;;;;-143.84;42.63;44948.16;5051646;28;20826;-65
2023/08/22 03:38:21;;;;;;;13.00;7.40;;;;;;;-143.84;42.66;44969.09;5051887;28;20537;-66
2023/08/22 03:40:48;;;;;;;11.00;7.07;;;;;;;-143.84;43.01;44934.81;5051836;28;20849;-64
2023/08/22 03:43:16;;;;;;;10.33;6.60;;;;;;;-143.84;42.98;44961.47;5051633;28;20507;-67
2023/08/22 03:45:43;;;;;;;21.37;7.00;;;;;;;-143.84;42.76;44957.66;5051266;28;20499;-66
2023/08/22 03:48:10;;;;;;;17.80;7.17;;;;;;;-143.84;42.83;44971.00;5049234;28;20441;-65
2023/08/22 03:50:39;;;;;;;12.40;7.33;;;;;;;-143.84;42.41;44923.41;5031419;28;20443;-66
2023/08/22 03:53:06;;;;;;;6.93;6.23;;;;;;;-143.84;42.66;44961.47;5031488;28;20465;-66
2023/08/22 03:55:35;;;;;;;7.60;6.73;;;;;;;-143.84;42.63;44957.66;5031468;28;20474;-65
2023/08/22 03:58:02;;;;;;;15.40;7.40;;;;;;;-143.84;42.91;44978.63;5031446;28;20687;-66
2023/08/22 04:00:30;;;;;;;12.03;6.60;;;;;;;-143.84;42.36;44940.53;5031086;28;20493;-66
2023/08/22 04:02:59;;;;;;;9.60;7.50;;;;;;;-143.84;42.67;44944.34;5031149;28;20450;-66
2023/08/22 04:05:26;;;;;;;9.47;6.57;;;;;;;-143.84;42.69;44961.47;5031139;28;20438;-64
2023/08/22 04:07:54;;;;;;;11.80;7.03;;;;;;;-143.84;42.54;44931.00;5030651;28;20435;-63
2023/08/22 04:10:21;;;;;;;19.37;7.33;;;;;;;-143.84;42.66;44984.31;5030964;28;20439;-64
2023/08/22 04:25:42;;;;;;;17.03;8.10;;;;;;;-143.84;42.07;44929.09;5149207;27;21108;-60
2023/08/22 04:28:10;;;;;;;12.00;6.83;;;;;;;-143.84;42.45;44959.56;5148932;27;20448;-60
2023/08/22 04:30:37;;;;;;;11.83;6.47;;;;;;;-143.84;42.48;44953.88;5149067;27;20442;-59
2023/08/22 04:33:05;;;;;;;7.87;7.17;;;;;;;-143.84;42.41;44946.25;5149163;27;20433;-60
2023/08/22 04:35:32;;;;;;;11.20;7.50;;;;;;;-143.84;42.32;44938.63;5149362;27;20437;-60
2023/08/22 04:37:59;;;;;;;8.13;7.07;;;;;;;-143.84;42.53;44923.41;5148827;27;20442;-60
2023/08/22 04:40:26;;;;;;;12.30;7.20;;;;;;;-143.84;41.63;44927.19;5147949;27;20842;-60
2023/08/22 04:42:55;;;;;;;9.27;8.03;;;;;;;-143.84;41.49;44908.16;5148963;27;20485;-60
2023/08/22 04:45:22;;;;;;;11.63;7.80;;;;;;;-143.84;40.77;44911.97;5149121;27;20446;-60
2023/08/22 04:47:49;;;;;;;22.23;7.07;;;;;;;-143.84;40.34;44910.06;5148754;27;20442;-60
2023/08/22 04:50:17;;;;;;;23.93;6.50;;;;;;;-143.84;39.66;44923.41;5149084;27;20429;-60
2023/08/22 04:52:44;;;;;;;13.43;7.63;;;;;;;-143.84;39.04;44889.13;5148711;27;20426;-60
2023/08/22 04:55:11;;;;;;;18.00;6.43;;;;;;;-143.84;38.71;44847.22;5148976;27;20469;-60
2023/08/22 04:57:38;;;;;;;11.63;7.03;;;;;;;-143.84;38.25;44885.31;5148883;27;20433;-60
2023/08/22 05:00:10;;;;;;;9.83;6.30;;;;;;;-143.84;37.59;44847.22;5148871;27;20433;-60
2023/08/22 05:02:37;;;;;;;9.87;7.17;;;;;;;-143.84;37.52;44875.78;5148758;27;20452;-60
2023/08/22 05:05:06;;;;;;;15.80;6.47;;;;;;;-143.84;37.09;44830.09;5148924;27;20536;-60
2023/08/22 05:07:33;;;;;;;11.00;6.20;;;;;;;-143.84;36.86;44811.06;5149112;27;20949;-60
2023/08/22 05:10:00;;;;;;;14.00;7.33;;;;;;;-143.84;36.65;44830.09;5148706;27;20441;-60
2023/08/22 05:12:27;;;;;;;7.57;6.00;;;;;;;-143.84;36.45;44835.81;5148899;27;20429;-60
2023/08/22 05:14:57;;;;;;;12.37;6.63;;;;;;;-143.84;35.93;44851.03;5149165;27;20484;-60
2023/08/22 05:17:26;;;;;;;9.33;6.57;;;;;;;-143.84;36.02;44828.19;5149126;27;20437;-60
2023/08/22 05:19:53;;;;;;;11.43;6.73;;;;;;;-143.84;35.15;44792.00;5149001;27;20441;-60
2023/08/22 05:22:20;;;;;;;15.33;6.83;;;;;;;-143.84;34.99;44824.38;5149544;27;20429;-60
2023/08/22 05:24:47;;;;;;;15.23;6.70;;;;;;;-143.84;34.87;44788.22;5145352;27;20474;-60
2023/08/22 05:27:16;;;;;;;9.63;6.30;;;;;;;-143.84;34.82;44780.59;5135827;27;20426;-60
2023/08/22 05:29:44;;;;;;;7.80;6.20;;;;;;;-143.84;34.84;44795.81;5135101;27;20850;-60
2023/08/22 05:32:12;;;;;;;13.40;5.90;;;;;;;-143.84;34.04;44793.91;5135158;27;20430;-60
2023/08/22 05:34:41;;;;;;;8.63;6.03;;;;;;;-143.84;33.94;44784.41;5135064;27;20990;-60
2023/08/22 05:37:08;;;;;;;19.43;6.63;;;;;;;-143.84;34.36;44744.41;5135069;27;20970;-60
2023/08/22 05:39:35;;;;;;;9.20;6.60;;;;;;;-143.84;34.04;44755.84;5135029;27;20793;-60
2023/08/22 05:42:03;;;;;;;7.63;6.83;;;;;;;-143.84;34.14;44767.25;5135092;27;20491;-60
2023/08/22 05:44:32;;;;;;;11.57;7.23;;;;;;;-143.84;33.54;44753.94;5135189;27;20533;-60
2023/08/22 05:46:59;;;;;;;13.73;6.33;;;;;;;-143.84;33.91;44772.97;5134791;27;20812;-60
2023/08/22 05:49:26;;;;;;;16.80;7.40;;;;;;;-143.84;33.59;44746.31;5135104;27;20448;-60
2023/08/22 05:52:02;;;;;;;14.33;6.80;;;;;;;-143.84;33.29;44752.03;5134897;27;20834;-60
2023/08/22 05:54:30;;;;;;;17.27;6.57;;;;;;;-143.84;33.57;44746.31;5135094;27;20530;-62
2023/08/22 05:56:57;;;;;;;7.10;6.37;;;;;;;-143.84;33.32;44729.19;5134945;27;20433;-62
2023/08/22 05:59:24;;;;;;;6.77;6.00;;;;;;;-143.84;32.77;44729.19;5134604;27;20491;-62
2023/08/22 06:01:51;;;;;;;10.57;6.30;;;;;;;-143.84;32.48;44710.16;5134839;27;20796;-63
2023/08/22 06:04:18;;;;;;;6.13;5.60;;;;;;;-143.84;32.06;44713.94;5134616;27;20494;-62
2023/08/22 06:06:46;;;;;;;16.60;7.10;;;;;;;-143.84;31.94;44721.56;5134650;27;20430;-62
2023/08/22 06:09:14;;;;;;;6.63;5.93;;;;;;;-143.84;31.94;44731.09;5134409;27;20506;-62
2023/08/22 06:11:41;;;;;;;14.37;6.63;;;;;;;-143.84;32.03;44702.53;5134484;27;20438;-62
2023/08/22 06:14:08;;;;;;;13.80;6.40;;;;;;;-143.84;31.47;44687.28;5134000;27;21001;-62
2023/08/22 06:16:35;;;;;;;7.20;5.80;;;;;;;-143.84;31.49;44727.28;5133082;27;20434;-62
2023/08/22 06:19:03;;;;;;;15.77;5.83;;;;;;;-143.84;31.36;44689.19;5133352;27;20796;-62
2023/08/22 06:21:30;;;;;;;10.10;6.00;;;;;;;-143.84;31.47;44677.78;5133052;27;20475;-62
2023/08/22 06:23:57;;;;;;;15.70;6.40;;;;;;;-143.84;31.58;44675.88;5132626;27;21025;-62
2023/08/22 06:26:26;;;;;;;11.47;6.17;;;;;;;-143.84;31.46;44675.88;5132667;27;20484;-62
2023/08/22 06:28:53;;;;;;;14.63;5.23;;;;;;;-143.84;30.67;44668.25;5132859;27;20442;-62
2023/08/22 06:31:20;;;;;;;11.47;6.00;;;;;;;-143.84;30.53;44637.78;5132611;27;20432;-62
2023/08/22 06:33:47;;;;;;;6.23;5.00;;;;;;;-143.84;30.78;44691.09;5132589;27;20503;-62
2023/08/22 06:36:14;;;;;;;10.03;5.90;;;;;;;-143.84;30.58;44651.13;5132406;27;20911;-62
2023/08/22 06:38:42;;;;;;;15.10;6.37;;;;;;;-143.84;30.35;44658.75;5132083;27;20434;-62
2023/08/22 06:41:09;;;;;;;8.40;5.60;;;;;;;-143.84;30.87;44649.22;5132149;27;20990;-62
2023/08/22 06:43:37;;;;;;;36.70;5.47;;;;;;;-143.84;30.80;44639.69;5132354;27;20434;-62
2023/08/22 06:46:04;;;;;;;13.63;5.60;;;;;;;-143.84;30.09;44624.47;5132491;27;20831;-62
2023/08/22 06:48:31;;;;;;;7.63;5.93;;;;;;;-143.84;30.74;44658.75;5132676;27;20434;-62
2023/08/22 06:50:59;;;;;;;8.47;5.63;;;;;;;-143.84;30.47;44628.28;5132332;27;20442;-62
2023/08/22 06:53:26;;;;;;;9.57;5.77;;;;;;;-143.84;30.87;44647.31;5132251;27;20442;-62
2023/08/22 06:55:55;;;;;;;9.93;6.43;;;;;;;-143.84;30.12;44632.09;5131948;27;20982;-62
2023/08/22 06:58:22;;;;;;;12.30;6.43;;;;;;;-143.84;30.15;44634.00;5132262;27;20430;-62
2023/08/22 07:00:51;;;;;;;17.83;5.83;;;;;;;-143.84;30.69;44632.09;5131853;27;20947;-62
2023/08/22 07:03:18;;;;;;;12.30;5.63;;;;;;;-143.84;30.37;44618.75;5131884;27;20537;-62
2023/08/22 07:05:45;;;;;;;9.73;5.80;;;;;;;-143.84;30.49;44603.53;5132043;27;20442;-62
2023/08/22 07:08:12;;;;;;;15.23;5.83;;;;;;;-143.84;29.92;44641.59;5131823;27;20503;-62
2023/08/22 07:10:39;;;;;;;7.20;5.63;;;;;;;-143.84;30.42;44584.47;5132090;27;20848;-62
2023/08/22 07:13:06;;;;;;;6.03;5.43;;;;;;;-143.84;30.11;44607.34;5132231;27;20502;-62
2023/08/22 07:15:34;;;;;;;8.63;6.13;;;;;;;-143.84;29.65;44603.53;5131948;27;20473;-62
2023/08/22 07:18:02;;;;;;;14.77;6.07;;;;;;;-143.84;29.39;44580.69;5132053;27;20513;-62
2023/08/22 07:20:29;;;;;;;24.33;7.03;;;;;;;-143.84;29.99;44605.44;5132138;27;20880;-62
2023/08/22 07:22:56;;;;;;;12.27;6.40;;;;;;;-143.84;29.75;44597.81;5131783;27;20430;-62
2023/08/22 07:25:23;;;;;;;10.80;6.23;;;;;;;-143.84;29.29;44592.09;5131415;27;20474;-62
2023/08/22 07:27:50;;;;;;;8.20;5.17;;;;;;;-143.84;29.88;44578.78;5131929;27;20434;-62
2023/08/22 07:30:18;;;;;;;11.37;6.53;;;;;;;-143.84;29.10;44586.38;5132011;27;20467;-62
2023/08/22 07:32:45;;;;;;;12.20;5.73;;;;;;;-143.84;29.78;44561.63;5131878;27;20465;-62
2023/08/22 07:35:14;;;;;;;12.27;5.67;;;;;;;-143.84;28.72;44588.28;5132182;27;20466;-62
2023/08/22 07:37:41;;;;;;;14.47;4.67;;;;;;;-143.84;28.77;44540.69;5131847;27;20487;-62
2023/08/22 07:40:09;;;;;;;17.97;6.17;;;;;;;-143.84;29.34;44588.28;5131457;27;20438;-62
2023/08/22 07:42:36;;;;;;;10.90;5.40;;;;;;;-143.84;28.93;44561.63;5131751;27;21420;-62
2023/08/22 07:45:05;;;;;;;13.83;5.17;;;;;;;-143.84;28.25;44548.31;5131825;27;20446;-62
2023/08/22 07:47:32;;;;;;;13.43;4.73;;;;;;;-143.84;28.25;44542.59;5131246;27;20876;-62
2023/08/22 07:49:59;;;;;;;8.20;5.50;;;;;;;-143.84;28.16;44574.97;5131047;27;20439;-62
2023/08/22 07:52:28;;;;;;;6.50;5.17;;;;;;;-143.84;28.02;44565.44;5131027;27;20442;-62
2023/08/22 07:54:55;;;;;;;14.07;7.40;;;;;;;-143.84;29.60;44574.97;5130934;27;21000;-62
2023/08/22 07:57:22;;;;;;;8.00;5.50;;;;;;;-143.84;28.87;44571.16;5130929;27;20508;-62
2023/08/22 07:59:49;;;;;;;16.63;5.40;;;;;;;-143.84;28.07;44573.06;5130972;27;20434;-62
2023/08/22 08:02:16;;;;;;;10.57;5.23;;;;;;;-143.84;28.39;44582.59;5131066;27;20438;-62
2023/08/22 08:04:43;;;;;;;6.93;5.20;;;;;;;-143.84;28.92;44569.25;5130761;27;20510;-62
2023/08/22 08:07:10;;;;;;;9.53;5.23;;;;;;;-143.84;29.09;44563.53;5130793;27;20494;-62
2023/08/22 08:09:39;;;;;;;10.00;5.60;;;;;;;-143.84;29.38;44550.22;5130577;27;20491;-62
2023/08/22 08:12:07;;;;;;;15.23;5.80;;;;;;;-143.84;28.82;44561.63;5130696;27;20431;-62
2023/08/22 08:14:34;;;;;;;12.83;5.97;;;;;;;-143.84;29.10;44554.03;5130492;27;20550;-62
2023/08/22 08:17:01;;;;;;;9.23;6.67;;;;;;;-143.84;29.45;44601.63;5130392;27;20943;-62
2023/08/22 08:19:28;;;;;;;7.43;5.10;;;;;;;-143.84;29.34;44571.16;5130723;27;20434;-62
2023/08/22 08:21:56;;;;;;;9.67;5.80;;;;;;;-143.84;29.78;44580.69;5130751;27;20455;-62
2023/08/22 08:24:23;;;;;;;17.67;6.43;;;;;;;-143.84;30.20;44588.28;5129925;27;20490;-62
2023/08/22 08:26:52;;;;;;;16.37;6.20;;;;;;;-143.84;30.21;44597.81;5130410;27;20445;-62
2023/08/22 08:29:19;;;;;;;10.17;6.00;;;;;;;-143.84;29.92;44634.00;5130487;27;20446;-62
2023/08/22 08:31:47;;;;;;;9.77;6.00;;;;;;;-143.84;30.11;44603.53;5130278;27;20430;-62
2023/08/22 08:34:14;;;;;;;15.70;5.93;;;;;;;-143.84;30.07;44586.38;5130152;27;20858;-62
2023/08/22 08:36:41;;;;;;;9.33;5.83;;;;;;;-143.84;29.67;44611.13;5130340;27;20507;-62
2023/08/22 08:39:08;;;;;;;6.73;5.50;;;;;;;-143.84;29.77;44595.91;5130249;27;20434;-62
2023/08/22 08:41:38;;;;;;;42.87;7.33;;;;;;;-143.84;30.00;44641.59;5129970;27;20854;-62
2023/08/22 08:44:08;;;;;;;23.13;7.37;;;;;;;-143.84;29.47;44605.44;5130007;27;20438;-62
2023/08/22 08:46:36;;;;;;;17.23;6.47;;;;;;;-143.84;29.83;44620.66;5130135;27;20442;-62
2023/08/22 08:49:05;;;;;;;18.13;7.43;;;;;;;-143.84;29.90;44632.09;5130161;27;20434;-62
2023/08/22 08:51:33;;;;;;;10.17;7.27;;;;;;;-143.84;30.09;44616.84;5129721;27;20430;-62
2023/08/22 08:54:00;;;;;;;15.50;7.27;;;;;;;-143.84;30.84;44635.88;5129926;27;20438;-62
2023/08/22 08:56:27;;;;;;;15.93;6.17;;;;;;;-143.84;30.92;44613.03;5129806;27;20477;-62
2023/08/22 08:58:55;;;;;;;8.87;7.07;;;;;;;-143.84;32.11;44647.31;5130333;27;20502;-62
2023/08/22 09:01:25;;;;;;;19.33;6.40;;;;;;;-143.84;32.37;44614.94;5133244;27;20421;-62
2023/08/22 09:03:53;;;;;;;8.73;7.67;;;;;;;-143.84;32.57;44653.03;5133668;27;20434;-62
2023/08/22 09:06:21;;;;;;;11.50;6.40;;;;;;;-143.84;32.38;44637.78;5133594;27;20434;-61
2023/08/22 09:09:04;;;;;;;10.53;6.87;;;;;;;-143.84;32.20;44613.03;5133589;27;20862;-62
2023/08/22 09:11:31;;;;;;;14.83;6.70;;;;;;;-143.84;32.09;44599.72;5133976;27;20422;-62
2023/08/22 09:13:59;;;;;;;14.37;7.40;;;;;;;-143.84;32.71;44651.13;5133634;27;20438;-62
2023/08/22 09:16:28;;;;;;;15.13;7.07;;;;;;;-143.84;33.11;44624.47;5133195;27;20473;-61
2023/08/22 09:19:00;;;;;;;17.17;7.67;;;;;;;-143.84;33.45;44649.22;5133178;27;20439;-61
2023/08/22 09:21:27;;;;;;;7.97;7.00;;;;;;;-143.84;33.42;44649.22;5133319;27;20436;-61
2023/08/22 09:23:54;;;;;;;12.93;7.80;;;;;;;-143.84;34.78;44672.06;5132858;27;20481;-61
2023/08/22 09:26:21;;;;;;;11.57;7.60;;;;;;;;;;5133051;27;20449;-61
2023/08/22 09:28:49;;;;;;;15.63;7.53;;;;;;;-143.84;35.74;44675.88;5133039;27;20430;-61
2023/08/22 09:31:23;;;;;;;11.13;7.50;;;;;;;-143.84;35.46;44694.91;5132771;27;20430;-61
2023/08/22 09:33:52;;;;;;;13.27;7.57;;;;;;;-143.84;35.74;44689.19;5132912;27;20442;-61
2023/08/22 09:36:20;;;;;;;11.53;7.43;;;;;;;-143.84;34.99;44685.38;5132867;27;20474;-61
2023/08/22 09:38:55;;;;;;;14.03;7.47;;;;;;;-143.84;34.19;44712.06;5132959;27;20446;-61
2023/08/22 09:41:23;;;;;;;14.23;7.90;;;;;;;-143.84;34.77;44712.06;5132852;27;20430;-61
2023/08/22 09:43:54;;;;;;;7.03;6.53;;;;;;;-143.84;35.30;44683.50;5132790;27;20923;-61
2023/08/22 09:46:22;;;;;;;29.73;8.10;;;;;;;-143.84;36.22;44729.19;5132909;27;20465;-61
2023/08/22 09:48:52;;;;;;;18.33;8.80;;;;;;;-143.84;36.96;44721.56;5132752;27;20872;-61
2023/08/22 09:51:21;;;;;;;11.83;8.10;;;;;;;-143.84;37.12;44734.91;5132966;27;20435;-61
2023/08/22 09:53:52;;;;;;;14.83;8.20;;;;;;;-143.84;36.23;44717.75;5132764;27;20491;-61
2023/08/22 09:56:21;;;;;;;8.57;7.40;;;;;;;-143.84;35.58;44723.47;5132956;27;20473;-61
2023/08/22 09:58:48;;;;;;;11.33;8.67;;;;;;;-143.84;35.77;44712.06;5133022;27;20517;-61
2023/08/22 10:01:17;;;;;;;8.87;7.23;;;;;;;-143.84;35.86;44702.53;5132676;27;20434;-61
2023/08/22 10:03:45;;;;;;;10.17;7.80;;;;;;;-143.84;36.64;44698.72;5132688;27;20530;-61
2023/08/22 10:06:15;;;;;;;10.10;7.83;;;;;;;-143.84;35.47;44733.00;5132946;27;20994;-61
2023/08/22 10:08:43;;;;;;;9.40;8.43;;;;;;;-143.84;37.90;44729.19;5132855;27;20499;-61
2023/08/22 10:11:12;;;;;;;12.93;7.47;;;;;;;-143.84;36.10;44725.38;5132561;27;20438;-61
2023/08/22 10:13:40;;;;;;;14.83;8.93;;;;;;;-143.84;38.67;44706.34;5132472;27;20434;-61
2023/08/22 10:16:08;;;;;;;10.90;8.57;;;;;;;-143.84;38.75;44706.34;5132504;27;20522;-61
2023/08/22 10:18:35;;;;;;;9.07;8.13;;;;;;;-143.84;37.23;44736.81;5132799;27;20436;-61
2023/08/22 10:21:05;;;;;;;12.30;8.20;;;;;;;-143.84;38.21;44702.53;5132600;27;20441;-61
2023/08/22 10:24:07;;;;;;;9.37;8.40;;;;;;;-143.84;39.18;44706.34;5132224;27;20544;-61
2023/08/22 10:26:48;;;;;;;9.97;8.10;;;;;;;-143.84;39.53;44752.03;5069037;28;20570;-61
2023/08/22 10:29:17;;;;;;;22.33;8.50;;;;;;;-143.84;40.17;44727.28;5068758;28;20471;-61
2023/08/22 10:32:20;;;;;;;15.23;9.10;;;;;;;-143.84;37.98;44729.19;5104254;27;21111;-61
2023/08/22 10:35:26;;;;;;;15.97;8.70;;;;;;;-143.84;38.83;44752.03;5132380;27;20438;-61
2023/08/22 10:37:53;;;;;;;10.40;7.70;;;;;;;-143.84;37.64;44742.50;5068333;28;21001;-61
2023/08/22 10:40:28;;;;;;;11.07;7.87;;;;;;;-143.84;37.64;44712.06;5121179;27;20529;-61
2023/08/22 10:43:06;;;;;;;8.77;7.97;;;;;;;-143.84;37.71;44765.34;5131930;27;20439;-61
2023/08/22 10:45:41;;;;;;;22.73;8.57;;;;;;;-143.84;37.72;44723.47;5132068;27;20763;-61
2023/08/22 10:48:13;;;;;;;9.87;7.33;;;;;;;-143.84;36.41;44725.38;5131920;27;20954;-61
2023/08/22 10:50:44;;;;;;;8.53;7.77;;;;;;;-143.84;36.84;44750.13;5131825;27;20430;-61
2023/08/22 10:53:24;;;;;;;10.00;7.70;;;;;;;-143.84;36.91;44748.22;5131803;27;20853;-61
2023/08/22 10:55:53;;;;;;;10.30;8.20;;;;;;;-143.84;36.00;44750.13;5131485;27;20485;-61
2023/08/22 10:58:58;;;;;;;13.20;8.03;;;;;;;-143.84;36.47;44725.38;5131812;27;20442;-60
2023/08/22 11:01:25;;;;;;;9.10;8.17;;;;;;;-143.84;36.91;44723.47;5131682;27;20822;-61
2023/08/22 11:03:55;;;;;;;8.70;7.77;;;;;;;-143.84;36.62;44748.22;5131713;27;20518;-61
2023/08/22 11:06:24;;;;;;;15.00;7.97;;;;;;;-143.84;36.04;44731.09;5131489;27;20815;-61
2023/08/22 11:08:51;;;;;;;8.30;7.33;;;;;;;-143.84;35.68;44729.19;5131371;27;20946;-61
2023/08/22 11:11:23;;;;;;;11.30;7.93;;;;;;;-143.84;35.97;44727.28;5131326;27;20437;-61
2023/08/22 11:13:50;;;;;;;9.10;7.80;;;;;;;-143.84;36.37;44734.91;5131306;27;20434;-61
2023/08/22 11:16:19;;;;;;;15.80;8.80;;;;;;;-143.84;36.99;44740.59;5131028;27;20982;-61
2023/08/22 11:18:48;;;;;;;20.07;7.90;;;;;;;-143.84;36.66;44717.75;5131411;27;20442;-61
2023/08/22 11:21:16;;;;;;;8.67;7.83;;;;;;;-143.84;35.90;44719.66;5131017;27;20487;-61
2023/08/22 11:23:44;;;;;;;12.50;7.80;;;;;;;-143.84;36.36;44753.94;5130606;27;20486;-61
2023/08/22 11:26:12;;;;;;;11.67;8.40;;;;;;;-143.84;35.90;44750.13;5131022;27;20453;-61
2023/08/22 11:28:40;;;;;;;9.17;7.23;;;;;;;-143.84;35.96;44740.59;5131115;27;20502;-61
2023/08/22 11:31:14;;;;;;;12.30;8.33;;;;;;;-143.84;35.76;44721.56;5131017;27;20467;-61
2023/08/22 11:33:47;;;;;;;7.77;7.07;;;;;;;-143.84;36.26;44755.84;5130968;27;20802;-61